sensor_id;sensor_type;location;lat;lon;timestamp;temperature;humidity
64670;DHT22;51080;51.690;5.174;2022-07-29T00:00:15;18.80;46.10
64670;DHT22;51080;51.690;5.174;2022-07-29T00:06:30;18.80;46.20
64670;DHT22;51080;51.690;5.174;2022-07-29T00:12:44;18.80;46.20
64670;DHT22;51080;51.690;5.174;2022-07-29T00:18:57;18.80;46.20
64670;DHT22;51080;51.690;5.174;2022-07-29T00:25:12;18.80;46.20
64670;DHT22;51080;51.690;5.174;2022-07-29T00:31:27;18.70;46.20
64670;DHT22;51080;51.690;5.174;2022-07-29T00:37:42;18.70;46.50
64670;DHT22;51080;51.690;5.174;2022-07-29T00:43:57;18.70;46.90
64670;DHT22;51080;51.690;5.174;2022-07-29T00:50:13;18.60;46.90
64670;DHT22;51080;51.690;5.174;2022-07-29T00:56:30;18.60;47.20
64670;DHT22;51080;51.690;5.174;2022-07-29T01:02:46;18.60;47.40
64670;DHT22;51080;51.690;5.174;2022-07-29T01:09:01;18.60;47.50
64670;DHT22;51080;51.690;5.174;2022-07-29T01:15:16;18.60;47.40
64670;DHT22;51080;51.690;5.174;2022-07-29T01:21:50;18.60;47.20
64670;DHT22;51080;51.690;5.174;2022-07-29T01:34:52;18.50;47.60
64670;DHT22;51080;51.690;5.174;2022-07-29T01:41:14;18.50;47.60
64670;DHT22;51080;51.690;5.174;2022-07-29T01:47:37;18.50;47.70
64670;DHT22;51080;51.690;5.174;2022-07-29T01:54:01;18.50;48.20
64670;DHT22;51080;51.690;5.174;2022-07-29T02:00:17;18.50;48.70
64670;DHT22;51080;51.690;5.174;2022-07-29T02:06:34;18.40;48.80
64670;DHT22;51080;51.690;5.174;2022-07-29T02:12:51;18.40;48.60
64670;DHT22;51080;51.690;5.174;2022-07-29T02:19:08;18.30;49.10
64670;DHT22;51080;51.690;5.174;2022-07-29T02:25:24;18.20;48.40
64670;DHT22;51080;51.690;5.174;2022-07-29T02:31:39;18.20;48.50
64670;DHT22;51080;51.690;5.174;2022-07-29T02:37:55;18.20;48.50
64670;DHT22;51080;51.690;5.174;2022-07-29T02:44:12;18.10;48.50
64670;DHT22;51080;51.690;5.174;2022-07-29T02:50:34;18.10;48.60
64670;DHT22;51080;51.690;5.174;2022-07-29T02:56:50;18.00;49.50
64670;DHT22;51080;51.690;5.174;2022-07-29T03:03:09;18.00;48.90
64670;DHT22;51080;51.690;5.174;2022-07-29T03:09:26;17.90;49.20
64670;DHT22;51080;51.690;5.174;2022-07-29T03:15:44;17.80;49.10
64670;DHT22;51080;51.690;5.174;2022-07-29T03:21:58;17.80;49.30
64670;DHT22;51080;51.690;5.174;2022-07-29T03:28:13;17.70;49.10
64670;DHT22;51080;51.690;5.174;2022-07-29T03:34:28;17.60;49.30
64670;DHT22;51080;51.690;5.174;2022-07-29T03:40:55;17.50;49.50
64670;DHT22;51080;51.690;5.174;2022-07-29T03:47:11;17.40;49.80
64670;DHT22;51080;51.690;5.174;2022-07-29T03:53:28;17.40;49.70
64670;DHT22;51080;51.690;5.174;2022-07-29T03:59:43;17.30;49.90
64670;DHT22;51080;51.690;5.174;2022-07-29T04:06:05;17.20;50.10
64670;DHT22;51080;51.690;5.174;2022-07-29T04:12:20;17.10;50.10
64670;DHT22;51080;51.690;5.174;2022-07-29T04:18:33;17.00;50.40
64670;DHT22;51080;51.690;5.174;2022-07-29T04:24:48;16.90;50.80
64670;DHT22;51080;51.690;5.174;2022-07-29T04:31:02;16.70;53.60
64670;DHT22;51080;51.690;5.174;2022-07-29T04:37:16;16.60;51.20
64670;DHT22;51080;51.690;5.174;2022-07-29T04:43:31;16.50;51.10
64670;DHT22;51080;51.690;5.174;2022-07-29T04:49:46;16.40;51.20
64670;DHT22;51080;51.690;5.174;2022-07-29T04:56:01;16.40;51.50
64670;DHT22;51080;51.690;5.174;2022-07-29T05:02:17;16.40;52.40
64670;DHT22;51080;51.690;5.174;2022-07-29T05:08:32;16.60;51.80
64670;DHT22;51080;51.690;5.174;2022-07-29T05:14:46;16.70;52.00
64670;DHT22;51080;51.690;5.174;2022-07-29T05:20:59;16.80;51.90
64670;DHT22;51080;51.690;5.174;2022-07-29T05:27:14;16.90;52.30
64670;DHT22;51080;51.690;5.174;2022-07-29T05:33:28;17.10;52.60
64670;DHT22;51080;51.690;5.174;2022-07-29T05:39:46;17.20;52.40
64670;DHT22;51080;51.690;5.174;2022-07-29T05:46:01;17.20;52.60
64670;DHT22;51080;51.690;5.174;2022-07-29T05:52:15;17.40;52.40
64670;DHT22;51080;51.690;5.174;2022-07-29T05:58:30;17.50;52.30
64670;DHT22;51080;51.690;5.174;2022-07-29T06:04:44;17.60;52.10
64670;DHT22;51080;51.690;5.174;2022-07-29T06:10:58;17.80;51.60
64670;DHT22;51080;51.690;5.174;2022-07-29T06:17:11;17.90;51.40
64670;DHT22;51080;51.690;5.174;2022-07-29T06:23:25;18.00;51.30
64670;DHT22;51080;51.690;5.174;2022-07-29T06:29:39;18.20;51.10
64670;DHT22;51080;51.690;5.174;2022-07-29T06:35:53;18.40;51.20
64670;DHT22;51080;51.690;5.174;2022-07-29T06:42:08;18.60;50.70
64670;DHT22;51080;51.690;5.174;2022-07-29T06:48:23;18.70;51.00
64670;DHT22;51080;51.690;5.174;2022-07-29T06:54:38;18.80;51.90
64670;DHT22;51080;51.690;5.174;2022-07-29T07:00:58;18.90;51.10
64670;DHT22;51080;51.690;5.174;2022-07-29T07:07:14;19.10;51.40
64670;DHT22;51080;51.690;5.174;2022-07-29T07:13:29;19.30;50.80
64670;DHT22;51080;51.690;5.174;2022-07-29T07:19:43;19.50;50.10
64670;DHT22;51080;51.690;5.174;2022-07-29T07:25:58;19.60;50.20
64670;DHT22;51080;51.690;5.174;2022-07-29T07:32:12;19.50;50.40
64670;DHT22;51080;51.690;5.174;2022-07-29T07:38:26;19.30;51.00
64670;DHT22;51080;51.690;5.174;2022-07-29T07:44:41;19.20;51.60
64670;DHT22;51080;51.690;5.174;2022-07-29T07:50:55;19.30;51.60
64670;DHT22;51080;51.690;5.174;2022-07-29T07:57:10;19.40;51.70
64670;DHT22;51080;51.690;5.174;2022-07-29T08:03:25;19.70;51.40
64670;DHT22;51080;51.690;5.174;2022-07-29T08:09:40;20.00;50.70
64670;DHT22;51080;51.690;5.174;2022-07-29T08:15:55;20.20;50.40
64670;DHT22;51080;51.690;5.174;2022-07-29T08:22:09;20.50;50.30
64670;DHT22;51080;51.690;5.174;2022-07-29T08:28:24;20.80;49.80
64670;DHT22;51080;51.690;5.174;2022-07-29T08:34:38;21.20;49.70
64670;DHT22;51080;51.690;5.174;2022-07-29T08:40:53;21.50;49.30
64670;DHT22;51080;51.690;5.174;2022-07-29T08:47:08;21.60;49.30
64670;DHT22;51080;51.690;5.174;2022-07-29T08:53:24;21.70;49.40
64670;DHT22;51080;51.690;5.174;2022-07-29T08:59:40;21.50;49.80
64670;DHT22;51080;51.690;5.174;2022-07-29T09:05:58;21.60;49.70
64670;DHT22;51080;51.690;5.174;2022-07-29T09:12:14;25.50;44.60
64670;DHT22;51080;51.690;5.174;2022-07-29T09:18:46;30.20;38.50
64670;DHT22;51080;51.690;5.174;2022-07-29T09:24:58;33.20;36.40
64670;DHT22;51080;51.690;5.174;2022-07-29T09:31:13;35.20;34.60
64670;DHT22;51080;51.690;5.174;2022-07-29T09:37:28;36.50;33.60
64670;DHT22;51080;51.690;5.174;2022-07-29T09:43:56;37.50;32.50
64670;DHT22;51080;51.690;5.174;2022-07-29T09:50:11;38.20;29.20
64670;DHT22;51080;51.690;5.174;2022-07-29T09:56:41;38.30;30.30
64670;DHT22;51080;51.690;5.174;2022-07-29T10:02:59;39.00;30.60
64670;DHT22;51080;51.690;5.174;2022-07-29T10:09:15;39.50;30.00
64670;DHT22;51080;51.690;5.174;2022-07-29T10:15:36;39.80;30.70
64670;DHT22;51080;51.690;5.174;2022-07-29T10:21:53;39.70;29.20
64670;DHT22;51080;51.690;5.174;2022-07-29T10:28:09;40.10;28.10
64670;DHT22;51080;51.690;5.174;2022-07-29T10:34:54;40.30;29.80
64670;DHT22;51080;51.690;5.174;2022-07-29T10:48:03;40.80;29.50
64670;DHT22;51080;51.690;5.174;2022-07-29T10:54:39;40.60;28.90
64670;DHT22;51080;51.690;5.174;2022-07-29T11:01:27;40.40;28.30
64670;DHT22;51080;51.690;5.174;2022-07-29T11:07:34;39.90;27.60
64670;DHT22;51080;51.690;5.174;2022-07-29T11:13:52;39.40;27.70
64670;DHT22;51080;51.690;5.174;2022-07-29T11:20:40;39.30;28.90
64670;DHT22;51080;51.690;5.174;2022-07-29T11:27:12;38.90;29.60
64670;DHT22;51080;51.690;5.174;2022-07-29T11:33:32;38.50;30.20
64670;DHT22;51080;51.690;5.174;2022-07-29T11:46:47;37.90;31.00
64670;DHT22;51080;51.690;5.174;2022-07-29T11:53:11;37.60;30.60
64670;DHT22;51080;51.690;5.174;2022-07-29T11:59:31;37.10;31.50
64670;DHT22;51080;51.690;5.174;2022-07-29T12:05:48;36.60;31.60
64670;DHT22;51080;51.690;5.174;2022-07-29T12:12:08;36.40;29.70
64670;DHT22;51080;51.690;5.174;2022-07-29T12:18:22;36.20;31.00
64670;DHT22;51080;51.690;5.174;2022-07-29T12:24:44;36.00;29.80
64670;DHT22;51080;51.690;5.174;2022-07-29T12:30:59;35.90;30.80
64670;DHT22;51080;51.690;5.174;2022-07-29T12:37:20;36.10;31.00
64670;DHT22;51080;51.690;5.174;2022-07-29T12:43:54;36.40;30.10
64670;DHT22;51080;51.690;5.174;2022-07-29T12:50:30;36.70;30.70
64670;DHT22;51080;51.690;5.174;2022-07-29T12:56:59;36.90;30.70
64670;DHT22;51080;51.690;5.174;2022-07-29T13:03:22;37.10;30.50
64670;DHT22;51080;51.690;5.174;2022-07-29T13:09:48;37.40;30.60
64670;DHT22;51080;51.690;5.174;2022-07-29T13:16:20;37.60;30.60
64670;DHT22;51080;51.690;5.174;2022-07-29T13:22:48;37.60;29.20
64670;DHT22;51080;51.690;5.174;2022-07-29T13:29:23;37.80;28.50
64670;DHT22;51080;51.690;5.174;2022-07-29T13:35:46;37.90;29.60
64670;DHT22;51080;51.690;5.174;2022-07-29T13:42:09;37.70;29.20
64670;DHT22;51080;51.690;5.174;2022-07-29T13:48:32;37.80;28.80
64670;DHT22;51080;51.690;5.174;2022-07-29T13:54:50;36.80;27.60
64670;DHT22;51080;51.690;5.174;2022-07-29T14:01:12;35.30;30.40
64670;DHT22;51080;51.690;5.174;2022-07-29T14:07:46;33.80;31.30
64670;DHT22;51080;51.690;5.174;2022-07-29T14:14:19;34.80;29.00
64670;DHT22;51080;51.690;5.174;2022-07-29T14:20:43;35.60;29.10
64670;DHT22;51080;51.690;5.174;2022-07-29T14:27:21;36.30;28.60
64670;DHT22;51080;51.690;5.174;2022-07-29T14:33:40;36.90;27.00
64670;DHT22;51080;51.690;5.174;2022-07-29T14:39:57;37.00;28.20
64670;DHT22;51080;51.690;5.174;2022-07-29T14:46:17;37.30;27.50
64670;DHT22;51080;51.690;5.174;2022-07-29T14:52:36;37.10;28.40
64670;DHT22;51080;51.690;5.174;2022-07-29T14:59:01;37.60;28.00
64670;DHT22;51080;51.690;5.174;2022-07-29T15:05:37;38.30;27.30
64670;DHT22;51080;51.690;5.174;2022-07-29T15:12:00;38.20;26.30
64670;DHT22;51080;51.690;5.174;2022-07-29T15:18:17;38.20;26.50
64670;DHT22;51080;51.690;5.174;2022-07-29T15:24:51;38.60;27.80
64670;DHT22;51080;51.690;5.174;2022-07-29T15:31:14;38.50;26.70
64670;DHT22;51080;51.690;5.174;2022-07-29T15:37:31;37.90;26.60
64670;DHT22;51080;51.690;5.174;2022-07-29T15:43:49;37.50;26.50
64670;DHT22;51080;51.690;5.174;2022-07-29T15:50:12;36.90;28.60
64670;DHT22;51080;51.690;5.174;2022-07-29T15:56:30;37.30;28.90
64670;DHT22;51080;51.690;5.174;2022-07-29T16:02:49;36.80;28.70
64670;DHT22;51080;51.690;5.174;2022-07-29T16:09:06;35.30;29.60
64670;DHT22;51080;51.690;5.174;2022-07-29T16:15:22;32.90;30.40
64670;DHT22;51080;51.690;5.174;2022-07-29T16:21:39;31.60;31.80
64670;DHT22;51080;51.690;5.174;2022-07-29T16:27:54;31.00;32.50
64670;DHT22;51080;51.690;5.174;2022-07-29T16:34:13;30.60;33.10
64670;DHT22;51080;51.690;5.174;2022-07-29T16:40:30;30.10;33.30
64670;DHT22;51080;51.690;5.174;2022-07-29T16:46:46;29.80;33.80
64670;DHT22;51080;51.690;5.174;2022-07-29T16:53:05;29.60;34.10
64670;DHT22;51080;51.690;5.174;2022-07-29T16:59:20;29.10;34.30
64670;DHT22;51080;51.690;5.174;2022-07-29T17:05:38;28.40;35.00
64670;DHT22;51080;51.690;5.174;2022-07-29T17:11:52;28.20;35.40
64670;DHT22;51080;51.690;5.174;2022-07-29T17:18:05;28.20;35.80
64670;DHT22;51080;51.690;5.174;2022-07-29T17:24:23;28.20;35.90
64670;DHT22;51080;51.690;5.174;2022-07-29T17:30:40;28.10;36.10
64670;DHT22;51080;51.690;5.174;2022-07-29T17:36:58;28.00;35.80
64670;DHT22;51080;51.690;5.174;2022-07-29T17:43:15;27.90;36.10
64670;DHT22;51080;51.690;5.174;2022-07-29T17:49:34;27.70;36.60
64670;DHT22;51080;51.690;5.174;2022-07-29T17:55:49;27.40;36.80
64670;DHT22;51080;51.690;5.174;2022-07-29T18:02:12;27.00;36.60
64670;DHT22;51080;51.690;5.174;2022-07-29T18:08:27;26.70;37.30
64670;DHT22;51080;51.690;5.174;2022-07-29T18:14:45;26.30;37.40
64670;DHT22;51080;51.690;5.174;2022-07-29T18:21:00;25.90;38.50
64670;DHT22;51080;51.690;5.174;2022-07-29T18:27:14;25.50;39.20
64670;DHT22;51080;51.690;5.174;2022-07-29T18:33:28;25.20;39.40
64670;DHT22;51080;51.690;5.174;2022-07-29T18:39:43;25.00;39.80
64670;DHT22;51080;51.690;5.174;2022-07-29T18:45:59;24.70;40.70
64670;DHT22;51080;51.690;5.174;2022-07-29T18:52:17;24.40;40.10
64670;DHT22;51080;51.690;5.174;2022-07-29T18:58:34;24.20;41.00
64670;DHT22;51080;51.690;5.174;2022-07-29T19:04:53;23.90;41.50
64670;DHT22;51080;51.690;5.174;2022-07-29T19:11:12;23.60;40.90
64670;DHT22;51080;51.690;5.174;2022-07-29T19:17:30;23.40;41.20
64670;DHT22;51080;51.690;5.174;2022-07-29T19:23:46;23.20;41.60
64670;DHT22;51080;51.690;5.174;2022-07-29T19:30:00;23.00;42.00
64670;DHT22;51080;51.690;5.174;2022-07-29T19:36:14;22.60;47.00
64670;DHT22;51080;51.690;5.174;2022-07-29T19:42:30;22.30;46.40
64670;DHT22;51080;51.690;5.174;2022-07-29T19:48:43;22.10;44.80
64670;DHT22;51080;51.690;5.174;2022-07-29T19:54:58;22.00;44.80
64670;DHT22;51080;51.690;5.174;2022-07-29T20:01:13;21.90;43.70
64670;DHT22;51080;51.690;5.174;2022-07-29T20:07:28;21.80;44.40
64670;DHT22;51080;51.690;5.174;2022-07-29T20:13:43;21.70;44.20
64670;DHT22;51080;51.690;5.174;2022-07-29T20:19:56;21.60;44.50
64670;DHT22;51080;51.690;5.174;2022-07-29T20:26:10;21.50;45.70
64670;DHT22;51080;51.690;5.174;2022-07-29T20:32:24;21.40;45.30
64670;DHT22;51080;51.690;5.174;2022-07-29T20:38:38;21.20;45.40
64670;DHT22;51080;51.690;5.174;2022-07-29T20:44:51;21.10;46.10
64670;DHT22;51080;51.690;5.174;2022-07-29T20:51:06;21.00;44.90
64670;DHT22;51080;51.690;5.174;2022-07-29T20:57:22;20.80;47.10
64670;DHT22;51080;51.690;5.174;2022-07-29T21:03:43;20.70;47.00
64670;DHT22;51080;51.690;5.174;2022-07-29T21:09:57;20.70;46.80
64670;DHT22;51080;51.690;5.174;2022-07-29T21:16:12;20.70;46.40
64670;DHT22;51080;51.690;5.174;2022-07-29T21:22:26;20.60;51.10
64670;DHT22;51080;51.690;5.174;2022-07-29T21:28:40;20.50;51.30
64670;DHT22;51080;51.690;5.174;2022-07-29T21:34:55;20.40;48.00
64670;DHT22;51080;51.690;5.174;2022-07-29T21:41:08;20.30;48.00
64670;DHT22;51080;51.690;5.174;2022-07-29T21:47:22;20.20;50.20
64670;DHT22;51080;51.690;5.174;2022-07-29T21:53:37;20.10;50.90
64670;DHT22;51080;51.690;5.174;2022-07-29T21:59:51;20.10;51.20
64670;DHT22;51080;51.690;5.174;2022-07-29T22:06:06;20.00;50.70
64670;DHT22;51080;51.690;5.174;2022-07-29T22:12:21;20.00;49.90
64670;DHT22;51080;51.690;5.174;2022-07-29T22:18:35;19.90;49.30
64670;DHT22;51080;51.690;5.174;2022-07-29T22:24:49;20.00;50.20
64670;DHT22;51080;51.690;5.174;2022-07-29T22:31:03;19.90;50.00
64670;DHT22;51080;51.690;5.174;2022-07-29T22:37:18;19.90;50.30
64670;DHT22;51080;51.690;5.174;2022-07-29T22:43:32;19.80;51.20
64670;DHT22;51080;51.690;5.174;2022-07-29T22:49:47;19.70;52.40
64670;DHT22;51080;51.690;5.174;2022-07-29T22:56:02;19.60;53.80
64670;DHT22;51080;51.690;5.174;2022-07-29T23:02:17;19.50;51.30
64670;DHT22;51080;51.690;5.174;2022-07-29T23:08:32;19.40;54.40
64670;DHT22;51080;51.690;5.174;2022-07-29T23:14:47;19.30;53.40
64670;DHT22;51080;51.690;5.174;2022-07-29T23:21:00;19.20;54.50
64670;DHT22;51080;51.690;5.174;2022-07-29T23:27:14;19.10;57.70
64670;DHT22;51080;51.690;5.174;2022-07-29T23:33:29;19.00;55.70
64670;DHT22;51080;51.690;5.174;2022-07-29T23:39:43;18.80;57.00
64670;DHT22;51080;51.690;5.174;2022-07-29T23:45:58;18.70;61.20
64670;DHT22;51080;51.690;5.174;2022-07-29T23:52:13;18.60;61.00
64670;DHT22;51080;51.690;5.174;2022-07-29T23:58:27;18.60;55.60
